createdAt,value
2023-02-02T00:00:09.894Z,4.77
2023-02-02T00:00:41.291Z,4.77
2023-02-02T00:01:13.342Z,4.77
2023-02-02T00:01:45.219Z,4.72
2023-02-02T00:02:16.908Z,4.72
2023-02-02T00:02:49.113Z,4.72
2023-02-02T00:03:05.246Z,4.72
2023-02-02T00:03:49.144Z,4.72
2023-02-02T00:04:21.267Z,4.72
2023-02-02T00:04:53.352Z,4.72
2023-02-02T00:05:25.548Z,4.72
2023-02-02T00:05:57.005Z,4.72
2023-02-02T00:06:28.930Z,4.72
2023-02-02T00:07:00.994Z,4.72
2023-02-02T00:07:32.892Z,4.72
2023-02-02T00:08:05.148Z,4.72
2023-02-02T00:08:37.037Z,4.72
2023-02-02T00:09:08.773Z,4.72
2023-02-02T00:09:40.822Z,4.72
2023-02-02T00:10:13.538Z,4.72
2023-02-02T00:10:44.722Z,4.72
2023-02-02T00:11:16.573Z,4.72
2023-02-02T00:11:48.764Z,4.72
2023-02-02T00:12:21.032Z,4.72
2023-02-02T00:12:52.779Z,4.72
2023-02-02T00:13:24.496Z,4.72
2023-02-02T00:13:56.644Z,4.72
2023-02-02T00:14:28.532Z,4.72
2023-02-02T00:15:01.745Z,4.72
2023-02-02T00:15:32.677Z,4.72
2023-02-02T00:16:04.849Z,4.72
2023-02-02T00:16:20.725Z,4.72
2023-02-02T00:16:52.843Z,4.72
2023-02-02T00:17:36.552Z,4.77
2023-02-02T00:18:08.347Z,4.77
2023-02-02T00:18:40.467Z,4.77
2023-02-02T00:19:12.886Z,4.77
2023-02-02T00:19:44.477Z,4.77
2023-02-02T00:20:16.455Z,4.77
2023-02-02T00:20:48.260Z,4.77
2023-02-02T00:21:20.265Z,4.77
2023-02-02T00:21:52.759Z,4.77
2023-02-02T00:22:24.077Z,4.77
2023-02-02T00:22:56.188Z,4.77
2023-02-02T00:23:28.337Z,4.77
2023-02-02T00:24:00.299Z,4.77
2023-02-02T00:24:32.204Z,4.77
2023-02-02T00:25:04.747Z,4.77
2023-02-02T00:25:36.167Z,4.77
2023-02-02T00:26:08.031Z,4.77
2023-02-02T00:26:40.070Z,4.77
2023-02-02T00:27:12.531Z,4.77
2023-02-02T00:27:44.002Z,4.77
2023-02-02T00:28:16.079Z,4.77
2023-02-02T00:28:47.854Z,4.77
2023-02-02T00:29:04.335Z,4.77
2023-02-02T00:29:35.910Z,4.77
2023-02-02T00:29:52.455Z,4.77
2023-02-02T00:30:24.313Z,4.77
2023-02-02T00:30:55.805Z,4.77
2023-02-02T00:31:27.855Z,4.77
2023-02-02T00:31:59.845Z,4.88
2023-02-02T00:32:31.880Z,4.88
2023-02-02T00:33:04.055Z,4.88
2023-02-02T00:33:19.763Z,4.88
2023-02-02T00:33:52.388Z,4.88
2023-02-02T00:34:35.768Z,4.88
2023-02-02T00:35:08.114Z,4.88
2023-02-02T00:35:39.565Z,4.88
2023-02-02T00:36:12.092Z,4.88
2023-02-02T00:36:43.743Z,4.88
2023-02-02T00:37:15.697Z,4.88
2023-02-02T00:37:47.488Z,4.88
2023-02-02T00:38:19.525Z,4.88
2023-02-02T00:38:51.964Z,4.88
2023-02-02T00:39:23.608Z,4.88
2023-02-02T00:39:55.427Z,4.88
2023-02-02T00:40:27.777Z,4.88
2023-02-02T00:40:59.518Z,4.88
2023-02-02T00:41:31.696Z,4.88
2023-02-02T00:42:03.946Z,4.77
2023-02-02T00:42:19.403Z,4.77
2023-02-02T00:43:03.868Z,4.77
2023-02-02T00:43:35.362Z,4.77
2023-02-02T00:44:07.512Z,4.77
2023-02-02T00:44:39.176Z,4.77
2023-02-02T00:45:12.687Z,4.77
2023-02-02T00:45:43.468Z,4.88
2023-02-02T00:46:15.270Z,4.88
2023-02-02T00:46:47.053Z,4.88
2023-02-02T00:47:03.713Z,4.88
2023-02-02T00:47:35.207Z,4.88
2023-02-02T00:48:19.207Z,4.88
2023-02-02T00:48:51.792Z,4.88
2023-02-02T00:49:23.247Z,4.77
2023-02-02T00:49:55.026Z,4.77
2023-02-02T00:50:27.365Z,4.77
2023-02-02T00:50:59.083Z,4.77
2023-02-02T00:51:31.077Z,4.77
2023-02-02T00:52:03.439Z,4.77
2023-02-02T00:52:19.099Z,4.77
2023-02-02T00:52:51.047Z,4.77
2023-02-02T00:53:34.951Z,4.77
2023-02-02T00:54:06.895Z,4.77
2023-02-02T00:54:38.914Z,4.77
2023-02-02T00:55:11.444Z,4.77
2023-02-02T00:55:43.166Z,4.77
2023-02-02T00:56:14.799Z,4.77
2023-02-02T00:56:46.776Z,4.77
2023-02-02T00:57:03.622Z,4.77
2023-02-02T00:57:46.825Z,4.77
2023-02-02T00:58:18.699Z,4.77
2023-02-02T00:58:50.740Z,4.77
2023-02-02T00:59:23.034Z,4.77
2023-02-02T00:59:54.708Z,4.77
2023-02-02T01:00:27.098Z,4.77
2023-02-02T01:00:58.711Z,4.77
2023-02-02T01:01:30.672Z,4.77
2023-02-02T01:02:03.773Z,4.77
2023-02-02T01:02:34.697Z,4.77
2023-02-02T01:03:06.533Z,4.77
2023-02-02T01:03:38.447Z,4.77
2023-02-02T01:04:10.717Z,4.77
2023-02-02T01:04:43.073Z,4.77
2023-02-02T01:05:15.254Z,4.77
2023-02-02T01:05:46.511Z,4.77
2023-02-02T01:06:18.472Z,4.77
2023-02-02T01:06:50.408Z,4.72
2023-02-02T01:07:22.846Z,4.72
2023-02-02T01:07:54.325Z,4.72
2023-02-02T01:08:26.317Z,4.72
2023-02-02T01:08:58.553Z,4.72
2023-02-02T01:09:30.253Z,4.72
2023-02-02T01:10:03.289Z,4.72
2023-02-02T01:10:34.293Z,4.72
2023-02-02T01:11:06.401Z,4.72
2023-02-02T01:11:38.082Z,4.72
2023-02-02T01:12:10.123Z,4.72
2023-02-02T01:12:42.607Z,4.72
2023-02-02T01:13:14.211Z,4.72
2023-02-02T01:13:46.176Z,4.72
2023-02-02T01:14:18.085Z,4.72
2023-02-02T01:14:50.024Z,4.72
2023-02-02T01:15:23.384Z,4.72
2023-02-02T01:15:53.826Z,4.72
2023-02-02T01:16:26.037Z,4.72
2023-02-02T01:16:58.059Z,4.72
2023-02-02T01:17:30.078Z,4.72
2023-02-02T01:18:02.513Z,4.72
2023-02-02T01:18:17.928Z,4.72
2023-02-02T01:19:02.780Z,4.72
2023-02-02T01:19:33.978Z,4.72
2023-02-02T01:20:06.223Z,4.72
2023-02-02T01:20:37.903Z,4.72
2023-02-02T01:21:09.762Z,4.72
2023-02-02T01:21:41.927Z,4.72
2023-02-02T01:22:13.923Z,4.72
2023-02-02T01:22:45.685Z,4.72
2023-02-02T01:23:02.612Z,4.72
2023-02-02T01:23:33.628Z,4.72
2023-02-02T01:23:49.820Z,4.72
2023-02-02T01:24:22.248Z,4.72
2023-02-02T01:24:53.469Z,4.72
2023-02-02T01:25:26.185Z,4.72
2023-02-02T01:25:57.608Z,4.72
2023-02-02T01:26:29.617Z,4.72
2023-02-02T01:27:02.177Z,4.72
2023-02-02T01:27:33.494Z,4.72
2023-02-02T01:27:49.635Z,4.72
2023-02-02T01:28:33.519Z,4.61
2023-02-02T01:29:05.530Z,4.61
2023-02-02T01:29:37.476Z,4.61
2023-02-02T01:30:10.223Z,4.61
2023-02-02T01:30:41.680Z,4.61
2023-02-02T01:31:13.582Z,4.61
2023-02-02T01:31:45.417Z,4.61
2023-02-02T01:32:17.229Z,4.61
2023-02-02T01:32:49.309Z,4.61
2023-02-02T01:33:21.886Z,4.61
2023-02-02T01:33:53.353Z,4.61
2023-02-02T01:34:25.236Z,4.61
2023-02-02T01:34:57.252Z,4.50
2023-02-02T01:35:29.491Z,4.50
2023-02-02T01:36:01.758Z,4.50
2023-02-02T01:36:17.241Z,4.50
2023-02-02T01:37:01.960Z,4.50
2023-02-02T01:37:33.199Z,4.50
2023-02-02T01:38:05.224Z,4.50
2023-02-02T01:38:37.039Z,4.50
2023-02-02T01:39:09.003Z,4.38
2023-02-02T01:39:41.079Z,4.38
2023-02-02T01:40:13.462Z,4.38
2023-02-02T01:40:44.913Z,4.38
2023-02-02T01:41:01.805Z,4.38
2023-02-02T01:41:33.192Z,4.38
2023-02-02T01:41:48.956Z,4.38
2023-02-02T01:42:21.139Z,4.38
2023-02-02T01:42:52.959Z,4.38
2023-02-02T01:43:24.832Z,4.38
2023-02-02T01:43:56.888Z,4.38
2023-02-02T01:44:28.977Z,4.38
2023-02-02T01:45:03.001Z,4.38
2023-02-02T01:45:17.695Z,4.38
2023-02-02T01:45:48.998Z,4.38
2023-02-02T01:46:32.866Z,4.38
2023-02-02T01:47:05.059Z,4.38
2023-02-02T01:47:36.552Z,4.38
2023-02-02T01:48:08.582Z,4.38
2023-02-02T01:48:40.816Z,4.38
2023-02-02T01:49:12.792Z,4.38
2023-02-02T01:49:44.564Z,4.38
2023-02-02T01:50:01.459Z,4.38
2023-02-02T01:50:44.647Z,4.27
2023-02-02T01:51:16.730Z,4.27
2023-02-02T01:51:48.399Z,4.27
2023-02-02T01:52:20.625Z,4.27
2023-02-02T01:52:52.697Z,4.27
2023-02-02T01:53:24.507Z,4.27
2023-02-02T01:53:56.268Z,4.27
2023-02-02T01:54:28.510Z,4.27
2023-02-02T01:55:00.876Z,4.27
2023-02-02T01:55:32.798Z,4.27
2023-02-02T01:56:04.611Z,4.27
2023-02-02T01:56:36.203Z,4.27
2023-02-02T01:57:08.386Z,4.27
2023-02-02T01:57:40.610Z,4.27
2023-02-02T01:58:12.466Z,4.38
2023-02-02T01:58:44.265Z,4.38
2023-02-02T01:59:16.318Z,4.38
2023-02-02T01:59:48.188Z,4.38
2023-02-02T02:00:20.414Z,4.38
2023-02-02T02:00:52.489Z,4.38
2023-02-02T02:01:24.173Z,4.38
2023-02-02T02:01:56.258Z,4.38
2023-02-02T02:02:28.103Z,4.38
2023-02-02T02:02:59.979Z,4.38
2023-02-02T02:03:32.334Z,4.38
2023-02-02T02:04:04.320Z,4.50
2023-02-02T02:04:35.872Z,4.50
2023-02-02T02:05:08.844Z,4.50
2023-02-02T02:05:40.673Z,4.50
2023-02-02T02:06:12.260Z,4.38
2023-02-02T02:06:43.843Z,4.38
2023-02-02T02:06:59.870Z,4.38
2023-02-02T02:07:43.759Z,4.38
2023-02-02T02:07:59.960Z,4.38
2023-02-02T02:08:43.814Z,4.38
2023-02-02T02:09:15.799Z,4.38
2023-02-02T02:09:47.643Z,4.38
2023-02-02T02:10:19.825Z,4.38
2023-02-02T02:10:52.005Z,4.38
2023-02-02T02:11:23.776Z,4.38
2023-02-02T02:11:55.567Z,4.38
2023-02-02T02:12:27.616Z,4.38
2023-02-02T02:12:59.639Z,4.38
2023-02-02T02:13:32.063Z,4.38
2023-02-02T02:14:03.859Z,4.38
2023-02-02T02:14:35.491Z,4.38
2023-02-02T02:15:08.553Z,4.38
2023-02-02T02:15:39.446Z,4.38
2023-02-02T02:16:11.951Z,4.38
2023-02-02T02:16:43.567Z,4.38
2023-02-02T02:16:59.671Z,4.38
2023-02-02T02:17:31.848Z,4.38
2023-02-02T02:17:47.535Z,4.38
2023-02-02T02:18:19.314Z,4.38
2023-02-02T02:18:51.486Z,4.50
2023-02-02T02:19:23.561Z,4.50
2023-02-02T02:19:55.532Z,4.50
2023-02-02T02:20:27.625Z,4.50
2023-02-02T02:20:59.382Z,4.50
2023-02-02T02:21:15.424Z,4.50
2023-02-02T02:21:47.151Z,4.50
2023-02-02T02:22:31.583Z,4.50
2023-02-02T02:23:03.582Z,4.50
2023-02-02T02:23:19.404Z,4.50
2023-02-02T02:23:51.517Z,4.50
2023-02-02T02:24:35.229Z,4.50
2023-02-02T02:25:07.540Z,4.50
2023-02-02T02:25:39.019Z,4.50
2023-02-02T02:26:11.209Z,4.50
2023-02-02T02:26:43.560Z,4.61
2023-02-02T02:27:14.956Z,4.61
2023-02-02T02:27:47.014Z,4.61
2023-02-02T02:28:18.972Z,4.61
2023-02-02T02:28:50.961Z,4.61
2023-02-02T02:29:23.136Z,4.61
2023-02-02T02:29:54.807Z,4.61
2023-02-02T02:30:27.190Z,4.61
2023-02-02T02:30:59.263Z,4.61
2023-02-02T02:31:31.560Z,4.61
2023-02-02T02:32:03.385Z,4.61
2023-02-02T02:32:34.815Z,4.72
2023-02-02T02:33:06.812Z,4.72
2023-02-02T02:33:38.865Z,4.72
2023-02-02T02:34:10.659Z,4.72
2023-02-02T02:34:43.016Z,4.77
2023-02-02T02:35:15.260Z,4.77
2023-02-02T02:35:46.712Z,4.77
2023-02-02T02:36:18.566Z,4.77
2023-02-02T02:36:50.571Z,4.77
2023-02-02T02:37:22.956Z,4.77
2023-02-02T02:37:54.600Z,4.77
2023-02-02T02:38:26.625Z,4.77
2023-02-02T02:38:58.706Z,4.77
2023-02-02T02:39:30.618Z,4.77
2023-02-02T02:40:03.602Z,4.77
2023-02-02T02:40:34.452Z,4.77
2023-02-02T02:41:06.400Z,4.77
2023-02-02T02:41:38.555Z,4.77
2023-02-02T02:42:10.521Z,4.77
2023-02-02T02:42:42.453Z,4.88
2023-02-02T02:42:58.495Z,4.88
2023-02-02T02:43:42.701Z,4.88
2023-02-02T02:44:14.515Z,4.88
2023-02-02T02:44:46.413Z,4.88
2023-02-02T02:45:18.776Z,4.88
2023-02-02T02:45:50.321Z,4.88
2023-02-02T02:46:22.736Z,4.88
2023-02-02T02:46:54.280Z,4.88
2023-02-02T02:47:26.115Z,4.88
2023-02-02T02:47:58.261Z,4.88
2023-02-02T02:48:30.295Z,4.88
2023-02-02T02:49:03.060Z,5.00
2023-02-02T02:49:33.918Z,5.00
2023-02-02T02:50:06.331Z,5.00
2023-02-02T02:50:38.152Z,5.11
2023-02-02T02:51:10.095Z,5.11
2023-02-02T02:51:42.298Z,5.11
2023-02-02T02:51:58.154Z,5.11
2023-02-02T02:52:30.186Z,5.11
2023-02-02T02:53:14.023Z,5.11
2023-02-02T02:53:46.103Z,5.11
2023-02-02T02:54:17.828Z,5.11
2023-02-02T02:54:49.937Z,5.11
2023-02-02T02:55:22.718Z,5.11
2023-02-02T02:55:53.975Z,5.11
2023-02-02T02:56:25.798Z,5.22
2023-02-02T02:56:57.766Z,5.22
2023-02-02T02:57:29.909Z,5.22
2023-02-02T02:58:02.703Z,5.22
2023-02-02T02:58:33.577Z,5.22
2023-02-02T02:59:05.804Z,5.22
2023-02-02T02:59:37.853Z,5.22
2023-02-02T03:00:10.541Z,5.22
2023-02-02T03:00:41.817Z,5.22
2023-02-02T03:00:58.080Z,5.22
2023-02-02T03:01:42.248Z,5.27
2023-02-02T03:02:13.625Z,5.27
2023-02-02T03:02:45.671Z,5.27
2023-02-02T03:03:17.513Z,5.27
2023-02-02T03:03:49.519Z,5.27
2023-02-02T03:04:21.769Z,5.27
2023-02-02T03:04:53.632Z,5.27
2023-02-02T03:05:26.092Z,5.27
2023-02-02T03:05:57.342Z,5.27
2023-02-02T03:06:29.520Z,5.38
2023-02-02T03:07:02.436Z,5.38
2023-02-02T03:07:33.259Z,5.38
2023-02-02T03:08:05.483Z,5.38
2023-02-02T03:08:37.490Z,5.38
2023-02-02T03:09:09.402Z,5.38
2023-02-02T03:09:41.519Z,5.38
2023-02-02T03:09:57.384Z,5.38
2023-02-02T03:10:29.444Z,5.38
2023-02-02T03:10:45.296Z,5.38
2023-02-02T03:11:17.279Z,5.38
2023-02-02T03:11:49.062Z,5.38
2023-02-02T03:12:21.427Z,5.38
2023-02-02T03:12:53.366Z,5.38
2023-02-02T03:13:25.092Z,5.38
2023-02-02T03:13:57.133Z,5.38
2023-02-02T03:14:13.276Z,5.38
2023-02-02T03:14:44.982Z,5.38
2023-02-02T03:15:29.476Z,5.38
2023-02-02T03:16:01.736Z,5.38
2023-02-02T03:16:33.292Z,5.38
2023-02-02T03:17:05.171Z,5.38
2023-02-02T03:17:36.907Z,5.38
2023-02-02T03:18:09.013Z,5.38
2023-02-02T03:18:40.912Z,5.38
2023-02-02T03:18:57.009Z,5.38
2023-02-02T03:19:40.794Z,5.38
2023-02-02T03:20:13.375Z,5.38
2023-02-02T03:20:44.959Z,5.38
2023-02-02T03:21:16.735Z,5.38
2023-02-02T03:21:48.680Z,5.38
2023-02-02T03:22:20.833Z,5.38
2023-02-02T03:22:53.101Z,5.38
2023-02-02T03:23:24.639Z,5.38
2023-02-02T03:23:56.775Z,5.38
2023-02-02T03:24:28.882Z,5.38
2023-02-02T03:25:01.336Z,5.38
2023-02-02T03:25:32.745Z,5.38
2023-02-02T03:26:04.532Z,5.38
2023-02-02T03:26:36.611Z,5.38
2023-02-02T03:27:08.676Z,5.38
2023-02-02T03:27:40.350Z,5.38
2023-02-02T03:28:12.710Z,5.38
2023-02-02T03:28:44.591Z,5.38
2023-02-02T03:29:16.592Z,5.38
2023-02-02T03:29:48.279Z,5.38
2023-02-02T03:30:20.764Z,5.38
2023-02-02T03:30:52.666Z,5.38
2023-02-02T03:31:24.425Z,5.38
2023-02-02T03:31:56.414Z,5.38
2023-02-02T03:32:12.679Z,5.38
2023-02-02T03:32:44.460Z,5.38
2023-02-02T03:33:28.402Z,5.38
2023-02-02T03:34:00.333Z,5.38
2023-02-02T03:34:32.431Z,5.38
2023-02-02T03:35:04.467Z,5.38
2023-02-02T03:35:36.144Z,5.38
2023-02-02T03:36:08.259Z,5.38
2023-02-02T03:36:40.000Z,5.38
2023-02-02T03:36:56.374Z,5.38
2023-02-02T03:37:39.923Z,5.38
2023-02-02T03:38:12.674Z,5.38
2023-02-02T03:38:44.179Z,5.38
2023-02-02T03:39:15.919Z,5.38
2023-02-02T03:39:47.978Z,5.38
2023-02-02T03:40:20.233Z,5.38
2023-02-02T03:40:52.178Z,5.38
2023-02-02T03:41:23.851Z,5.38
2023-02-02T03:41:55.929Z,5.38
2023-02-02T03:42:12.406Z,5.38
2023-02-02T03:42:55.919Z,5.38
2023-02-02T03:43:28.080Z,5.38
2023-02-02T03:43:59.869Z,5.38
2023-02-02T03:44:32.024Z,5.38
2023-02-02T03:45:06.220Z,5.38
2023-02-02T03:45:35.858Z,5.38
2023-02-02T03:46:07.771Z,5.38
2023-02-02T03:46:39.669Z,5.38
2023-02-02T03:47:12.127Z,5.38
2023-02-02T03:47:43.712Z,5.38
2023-02-02T03:48:15.596Z,5.38
2023-02-02T03:48:47.609Z,5.38
2023-02-02T03:49:19.701Z,5.38
2023-02-02T03:49:51.869Z,5.38
2023-02-02T03:50:23.799Z,5.38
2023-02-02T03:50:55.591Z,5.38
2023-02-02T03:51:12.091Z,5.38
2023-02-02T03:51:43.491Z,5.38
2023-02-02T03:52:27.586Z,5.38
2023-02-02T03:52:59.462Z,5.38
2023-02-02T03:53:15.580Z,5.38
2023-02-02T03:53:47.290Z,5.38
2023-02-02T03:54:31.866Z,5.27
2023-02-02T03:55:04.322Z,5.27
2023-02-02T03:55:35.271Z,5.27
2023-02-02T03:56:07.241Z,5.27
2023-02-02T03:56:39.315Z,5.27
2023-02-02T03:57:11.626Z,5.27
2023-02-02T03:57:43.564Z,5.27
2023-02-02T03:58:15.259Z,5.27
2023-02-02T03:58:47.372Z,5.27
2023-02-02T03:59:19.211Z,5.27
2023-02-02T03:59:51.245Z,5.27
2023-02-02T04:00:23.702Z,5.27
2023-02-02T04:00:55.154Z,5.27
2023-02-02T04:01:27.322Z,5.27
2023-02-02T04:01:59.113Z,5.27
2023-02-02T04:02:31.042Z,5.27
2023-02-02T04:03:04.158Z,5.27
2023-02-02T04:03:34.979Z,5.27
2023-02-02T04:04:07.635Z,5.27
2023-02-02T04:04:39.103Z,5.38
2023-02-02T04:05:11.605Z,5.38
2023-02-02T04:05:43.097Z,5.38
2023-02-02T04:06:14.951Z,5.38
2023-02-02T04:06:46.939Z,5.38
2023-02-02T04:07:18.840Z,5.38
2023-02-02T04:07:51.193Z,5.38
2023-02-02T04:08:22.946Z,5.38
2023-02-02T04:08:54.794Z,5.38
2023-02-02T04:09:26.903Z,5.38
2023-02-02T04:09:58.902Z,5.38
2023-02-02T04:10:31.087Z,5.38
2023-02-02T04:11:03.734Z,5.38
2023-02-02T04:11:34.668Z,5.38
2023-02-02T04:12:06.764Z,5.38
2023-02-02T04:12:38.659Z,5.38
2023-02-02T04:12:54.713Z,5.38
2023-02-02T04:13:38.739Z,5.38
2023-02-02T04:14:10.808Z,5.38
2023-02-02T04:14:42.964Z,5.38
2023-02-02T04:15:15.729Z,5.38
2023-02-02T04:15:46.558Z,5.38
2023-02-02T04:16:18.630Z,5.38
2023-02-02T04:16:50.522Z,5.38
2023-02-02T04:17:22.685Z,5.38
2023-02-02T04:17:54.507Z,5.38
2023-02-02T04:18:26.607Z,5.38
2023-02-02T04:18:58.501Z,5.38
2023-02-02T04:19:30.445Z,5.38
2023-02-02T04:20:03.375Z,5.38
2023-02-02T04:20:34.248Z,5.38
2023-02-02T04:21:06.348Z,5.38
2023-02-02T04:21:38.207Z,5.38
2023-02-02T04:21:54.398Z,5.38
2023-02-02T04:22:26.204Z,5.38
2023-02-02T04:22:42.724Z,5.38
2023-02-02T04:23:14.335Z,5.38
2023-02-02T04:23:46.107Z,5.38
2023-02-02T04:24:18.095Z,5.38
2023-02-02T04:24:50.173Z,5.38
2023-02-02T04:25:24.795Z,5.38
2023-02-02T04:25:54.060Z,5.38
2023-02-02T04:26:26.323Z,5.38
2023-02-02T04:26:42.706Z,5.38
2023-02-02T04:27:26.231Z,5.38
2023-02-02T04:27:58.037Z,5.38
2023-02-02T04:28:29.994Z,5.38
2023-02-02T04:29:02.894Z,5.38
2023-02-02T04:29:33.911Z,5.38
2023-02-02T04:30:07.069Z,5.38
2023-02-02T04:30:37.886Z,5.38
2023-02-02T04:30:54.271Z,5.38
2023-02-02T04:31:37.919Z,5.38
2023-02-02T04:32:09.855Z,5.38
2023-02-02T04:32:42.296Z,5.27
2023-02-02T04:33:13.696Z,5.27
2023-02-02T04:33:45.837Z,5.27
2023-02-02T04:34:17.831Z,5.27
2023-02-02T04:34:49.702Z,5.27
2023-02-02T04:35:24.631Z,5.27
2023-02-02T04:35:53.816Z,5.38
2023-02-02T04:36:25.598Z,5.38
2023-02-02T04:36:57.789Z,5.38
2023-02-02T04:37:29.536Z,5.38
2023-02-02T04:38:02.540Z,5.38
2023-02-02T04:38:33.613Z,5.27
2023-02-02T04:39:05.686Z,5.27
2023-02-02T04:39:37.524Z,5.27
2023-02-02T04:39:53.765Z,5.27
2023-02-02T04:40:25.520Z,5.27
2023-02-02T04:40:41.949Z,5.27
2023-02-02T04:41:13.510Z,5.27
2023-02-02T04:41:45.467Z,5.27
2023-02-02T04:42:17.331Z,5.38
2023-02-02T04:42:49.354Z,5.38
2023-02-02T04:43:21.701Z,5.38
2023-02-02T04:43:53.515Z,5.38
2023-02-02T04:44:25.425Z,5.38
2023-02-02T04:44:57.368Z,5.38
2023-02-02T04:45:29.862Z,5.27
2023-02-02T04:46:01.710Z,5.27
2023-02-02T04:46:33.246Z,5.27
2023-02-02T04:47:05.304Z,5.27
2023-02-02T04:47:37.223Z,5.27
2023-02-02T04:48:09.117Z,5.27
2023-02-02T04:48:41.400Z,5.27
2023-02-02T04:49:13.380Z,5.27
2023-02-02T04:49:45.186Z,5.27
2023-02-02T04:50:17.268Z,5.38
2023-02-02T04:50:48.886Z,5.38
2023-02-02T04:51:21.291Z,5.38
2023-02-02T04:51:53.171Z,5.38
2023-02-02T04:52:24.919Z,5.38
2023-02-02T04:52:41.199Z,5.38
2023-02-02T04:53:13.453Z,5.27
2023-02-02T04:53:56.942Z,5.27
2023-02-02T04:54:28.801Z,5.27
2023-02-02T04:55:01.423Z,5.27
2023-02-02T04:55:32.861Z,5.27
2023-02-02T04:56:04.888Z,5.27
2023-02-02T04:56:36.968Z,5.27
2023-02-02T04:57:08.762Z,5.27
2023-02-02T04:57:40.730Z,5.27
2023-02-02T04:58:13.179Z,5.27
2023-02-02T04:58:44.663Z,5.27
2023-02-02T04:59:16.668Z,5.27
2023-02-02T04:59:48.655Z,5.27
2023-02-02T05:00:21.027Z,5.38
2023-02-02T05:00:52.934Z,5.38
2023-02-02T05:01:24.688Z,5.38
2023-02-02T05:01:40.628Z,5.38
2023-02-02T05:02:24.600Z,5.38
2023-02-02T05:02:56.593Z,5.38
2023-02-02T05:03:28.488Z,5.38
2023-02-02T05:04:00.521Z,5.38
2023-02-02T05:04:32.761Z,5.38
2023-02-02T05:05:04.952Z,5.38
2023-02-02T05:05:36.519Z,5.38
2023-02-02T05:06:08.455Z,5.38
2023-02-02T05:06:24.596Z,5.38
2023-02-02T05:06:56.252Z,5.38
2023-02-02T05:07:40.361Z,5.38
2023-02-02T05:08:12.793Z,5.38
2023-02-02T05:08:44.327Z,5.38
2023-02-02T05:09:16.422Z,5.38
2023-02-02T05:09:48.353Z,5.38
2023-02-02T05:10:20.266Z,5.38
2023-02-02T05:10:52.577Z,5.38
2023-02-02T05:11:08.342Z,5.38
2023-02-02T05:11:52.671Z,5.38
2023-02-02T05:12:24.255Z,5.38
2023-02-02T05:12:56.248Z,5.38
2023-02-02T05:13:28.226Z,5.38
2023-02-02T05:14:00.278Z,5.38
2023-02-02T05:14:32.362Z,5.38
2023-02-02T05:15:06.594Z,5.38
2023-02-02T05:15:35.849Z,5.38
2023-02-02T05:16:08.104Z,5.38
2023-02-02T05:16:40.088Z,5.38
2023-02-02T05:17:12.557Z,5.38
2023-02-02T05:17:43.904Z,5.38
2023-02-02T05:18:16.016Z,5.38
2023-02-02T05:18:47.909Z,5.38
2023-02-02T05:19:19.881Z,5.38
2023-02-02T05:19:52.352Z,5.38
2023-02-02T05:20:08.184Z,5.38
2023-02-02T05:20:39.738Z,5.27
2023-02-02T05:21:23.916Z,5.27
2023-02-02T05:21:55.877Z,5.27
2023-02-02T05:22:27.752Z,5.27
2023-02-02T05:22:59.710Z,5.27
2023-02-02T05:23:32.021Z,5.27
2023-02-02T05:24:04.109Z,5.38
2023-02-02T05:24:35.592Z,5.38
2023-02-02T05:24:52.054Z,5.38
2023-02-02T05:25:35.906Z,5.38
2023-02-02T05:26:07.694Z,5.38
2023-02-02T05:26:39.671Z,5.38
2023-02-02T05:27:11.880Z,5.38
2023-02-02T05:27:43.463Z,5.38
2023-02-02T05:28:15.629Z,5.38
2023-02-02T05:28:47.440Z,5.38
2023-02-02T05:29:19.520Z,5.38
2023-02-02T05:29:51.915Z,5.38
2023-02-02T05:30:23.920Z,5.38
2023-02-02T05:30:55.365Z,5.38
2023-02-02T05:31:27.395Z,5.38
2023-02-02T05:31:59.461Z,5.38
2023-02-02T05:32:31.564Z,5.38
2023-02-02T05:33:04.205Z,5.38
2023-02-02T05:33:35.192Z,5.38
2023-02-02T05:34:07.326Z,5.38
2023-02-02T05:34:39.368Z,5.38
2023-02-02T05:35:11.571Z,5.38
2023-02-02T05:35:43.335Z,5.38
2023-02-02T05:36:15.238Z,5.38
2023-02-02T05:36:47.054Z,5.38
2023-02-02T05:37:19.239Z,5.38
2023-02-02T05:37:51.340Z,5.38
2023-02-02T05:38:07.332Z,5.38
2023-02-02T05:38:39.078Z,5.38
2023-02-02T05:39:23.201Z,5.38
2023-02-02T05:39:54.866Z,5.38
2023-02-02T05:40:27.328Z,5.50
2023-02-02T05:40:58.889Z,5.50
2023-02-02T05:41:31.449Z,5.50
2023-02-02T05:42:03.910Z,5.50
2023-02-02T05:42:34.763Z,5.50
2023-02-02T05:42:51.353Z,5.50
2023-02-02T05:43:34.824Z,5.50
2023-02-02T05:44:07.006Z,5.50
2023-02-02T05:44:38.799Z,5.50
2023-02-02T05:45:12.037Z,5.50
2023-02-02T05:45:43.201Z,5.50
2023-02-02T05:46:14.997Z,5.50
2023-02-02T05:46:46.642Z,5.50
2023-02-02T05:47:18.703Z,5.50
2023-02-02T05:47:50.789Z,5.50
2023-02-02T05:48:23.016Z,5.50
2023-02-02T05:48:54.598Z,5.50
2023-02-02T05:49:26.612Z,5.50
2023-02-02T05:49:58.552Z,5.50
2023-02-02T05:50:31.157Z,5.50
2023-02-02T05:51:03.701Z,5.50
2023-02-02T05:51:34.332Z,5.50
2023-02-02T05:51:50.730Z,5.50
2023-02-02T05:52:22.809Z,5.50
2023-02-02T05:52:38.505Z,5.50
2023-02-02T05:53:10.369Z,5.50
2023-02-02T05:53:42.864Z,5.50
2023-02-02T05:54:14.337Z,5.50
2023-02-02T05:54:46.582Z,5.50
2023-02-02T05:55:18.734Z,5.50
2023-02-02T05:55:50.232Z,5.50
2023-02-02T05:56:06.437Z,5.50
2023-02-02T05:56:38.191Z,5.50
2023-02-02T05:57:22.790Z,5.50
2023-02-02T05:57:54.177Z,5.50
2023-02-02T05:58:10.459Z,5.50
2023-02-02T05:58:42.610Z,5.50
2023-02-02T05:59:26.182Z,5.50
2023-02-02T05:59:58.179Z,5.50
2023-02-02T06:00:30.638Z,5.50
2023-02-02T06:01:02.654Z,5.50
2023-02-02T06:01:34.067Z,5.50
2023-02-02T06:02:06.149Z,5.50
2023-02-02T06:02:37.969Z,5.50
2023-02-02T06:03:10.050Z,5.50
2023-02-02T06:03:42.377Z,5.50
2023-02-02T06:04:14.006Z,5.50
2023-02-02T06:04:45.965Z,5.50
2023-02-02T06:05:18.091Z,5.50
2023-02-02T06:05:50.039Z,5.50
2023-02-02T06:06:22.367Z,5.50
2023-02-02T06:06:54.024Z,5.50
2023-02-02T06:07:25.757Z,5.50
2023-02-02T06:07:57.965Z,5.61
2023-02-02T06:08:29.887Z,5.61
2023-02-02T06:09:02.121Z,5.61
2023-02-02T06:09:33.665Z,5.61
2023-02-02T06:09:49.865Z,5.61
2023-02-02T06:10:22.416Z,5.61
2023-02-02T06:10:37.894Z,5.61
2023-02-02T06:11:09.848Z,5.61
2023-02-02T06:11:42.091Z,5.61
2023-02-02T06:12:13.661Z,5.61
2023-02-02T06:12:45.777Z,5.61
2023-02-02T06:13:17.705Z,5.61
2023-02-02T06:13:49.579Z,5.61
2023-02-02T06:14:05.626Z,5.61
2023-02-02T06:14:37.564Z,5.61
2023-02-02T06:15:22.915Z,5.61
2023-02-02T06:15:53.709Z,5.61
2023-02-02T06:16:25.422Z,5.61
2023-02-02T06:16:57.506Z,5.61
2023-02-02T06:17:29.384Z,5.61
2023-02-02T06:18:02.082Z,5.61
2023-02-02T06:18:33.254Z,5.61
2023-02-02T06:18:49.482Z,5.61
2023-02-02T06:19:33.375Z,5.61
2023-02-02T06:20:05.590Z,5.61
2023-02-02T06:20:37.247Z,5.61
2023-02-02T06:21:09.348Z,5.61
2023-02-02T06:21:41.442Z,5.61
2023-02-02T06:22:13.317Z,5.61
2023-02-02T06:22:45.310Z,5.61
2023-02-02T06:23:17.077Z,5.61
2023-02-02T06:23:49.138Z,5.61
2023-02-02T06:24:21.588Z,5.61
2023-02-02T06:24:53.180Z,5.61
2023-02-02T06:25:25.756Z,5.61
2023-02-02T06:25:57.041Z,5.61
2023-02-02T06:26:29.114Z,5.61
2023-02-02T06:27:01.564Z,5.61
2023-02-02T06:27:33.353Z,5.72
2023-02-02T06:28:05.108Z,5.72
2023-02-02T06:28:37.041Z,5.72
2023-02-02T06:29:08.997Z,5.72
2023-02-02T06:29:40.921Z,5.72
2023-02-02T06:30:14.188Z,5.61
2023-02-02T06:30:44.971Z,5.61
2023-02-02T06:31:17.010Z,5.61
2023-02-02T06:31:49.018Z,5.61
2023-02-02T06:32:05.220Z,5.61
2023-02-02T06:32:36.793Z,5.61
2023-02-02T06:33:20.827Z,5.61
2023-02-02T06:33:53.325Z,5.61
2023-02-02T06:34:24.640Z,5.61
2023-02-02T06:34:56.611Z,5.61
2023-02-02T06:35:29.151Z,5.61
2023-02-02T06:36:00.731Z,5.61
2023-02-02T06:36:32.925Z,5.61
2023-02-02T06:36:48.780Z,5.61
2023-02-02T06:37:32.930Z,5.61
2023-02-02T06:38:05.022Z,5.61
2023-02-02T06:38:36.371Z,5.61
2023-02-02T06:39:08.495Z,5.61
2023-02-02T06:39:40.561Z,5.61
2023-02-02T06:40:14.578Z,5.61
2023-02-02T06:40:44.379Z,5.61
2023-02-02T06:41:16.502Z,5.61
2023-02-02T06:41:48.482Z,5.61
2023-02-02T06:42:21.977Z,5.61
2023-02-02T06:42:52.687Z,5.61
2023-02-02T06:43:24.343Z,5.61
2023-02-02T06:43:56.285Z,5.61
2023-02-02T06:44:28.366Z,5.61
2023-02-02T06:45:00.205Z,5.61
2023-02-02T06:45:32.889Z,5.50
2023-02-02T06:45:48.437Z,5.50
2023-02-02T06:46:20.169Z,5.50
2023-02-02T06:46:36.228Z,5.50
2023-02-02T06:47:08.396Z,5.50
2023-02-02T06:47:40.097Z,5.50
2023-02-02T06:48:12.512Z,5.50
2023-02-02T06:48:44.176Z,5.50
2023-02-02T06:49:16.094Z,5.50
2023-02-02T06:49:48.161Z,5.50
2023-02-02T06:50:04.779Z,5.50
2023-02-02T06:50:35.890Z,5.50
2023-02-02T06:51:20.080Z,5.50
2023-02-02T06:51:52.303Z,5.50
2023-02-02T06:52:23.889Z,5.50
2023-02-02T06:52:56.017Z,5.50
2023-02-02T06:53:28.018Z,5.50
2023-02-02T06:53:59.781Z,5.61
2023-02-02T06:54:32.293Z,5.61
2023-02-02T06:55:04.769Z,5.61
2023-02-02T06:55:35.897Z,5.61
2023-02-02T06:56:08.098Z,5.61
2023-02-02T06:56:39.733Z,5.61
2023-02-02T06:57:12.108Z,5.61